Rhinelander, WI (54501)

5:35 AM CDT on April 21, 2015 (GMT -0500)
Rhinelander CW5781 | | Change Station
CLOSE
Current Station
Personal Weather Station
Location: Rhinelander, WI
Elevation: 1520 ft
Nearby Weather Stations

Elev 1520 ft 45.64 °N, 89.39 °W | Updated 13 seconds ago

Snow
Snow
31.3 °F
Feels Like 31 °F
N
3.0
Wind Variable Wind from West
Gusts 7.0 mph

Today
High -- | Low -- °F
--% Chance of Precip.
Yesterday
High -- | Low -- °F
Precip. -- in
6:01 AM 7:51 PM
Waxing Crescent, 9% visible
Pressure 29.33 in
Visibility 3.0 miles
Clouds Few 900 ft
Mostly Cloudy 1200 ft
Overcast 2100 ft
Windchill 31 °F
Dew Point 30 °F
Humidity 95%
Rainfall 0.00 in
Snow Depth Not available.
UV 0 out of 12
Pollen 7.50 out of 12
Air Quality Not available.
Flu Activity Local Activity
SPECI KRHI 211019Z AUTO 26012KT 3SM -SN BR FEW009 BKN012 OVC021 00/M02 A2933 RMK AO2 P0000 T00001022

More Conditions Fewer Conditions

Pressure 29.33 in
Visibility 3.0 miles
Clouds Few 900 ft
Mostly Cloudy 1200 ft
Overcast 2100 ft
Windchill 31 °F
Dew Point 30 °F
Humidity 95%
Rainfall 0.00 in
Snow Depth Not available.
UV 0 out of 12
Pollen 7.50 out of 12
Air Quality Not available.
Flu Activity Local Activity
SPECI KRHI 211019Z AUTO 26012KT 3SM -SN BR FEW009 BKN012 OVC021 00/M02 A2933 RMK AO2 P0000 T00001022

More Conditions Fewer Conditions

10-Day Weather Forecast

Almanac

Astronomy

Apr. 21, 2015 Rise Set
Actual Time
Civil Twilight
Nautical Twilight
Astronomical Twilight
Moon
Length of Visible Light
Length of Day
Tomorrow will be .
, % of the Moon is Illuminated

Today's Extremes

State Highs State Lows

Community

WunderPhotos

Upload Photos

1,815,340 photos uploaded!

WunderBlogs® & News

Nearby

Air Quality

  Air Quality AQ Index Pollutant
Not available.

Snow Depth

Station Depth Elevation

Earthquake Activity

City Distance Mag. Time & Date
Minimum magnitude displayed is 2.5.

Coastal Water Temperatures

Place Temperature

Stations

Nearby Weather Stations

Station Location Temp. Windchill Dew Point Humidity Wind Precip. Elev Updated Type